Colorado Springs, CO

11:05 AM MST on February 01, 2015 (GMT -0700)
Old North End (Cascade & Washington) | Change Station
CLOSE
Current Station
Personal Weather Stations
Location: Colorado Springs, CO
Elevation: 6122 ft
Nearby Weather Stations

Elev 6122 ft 38.86 °N, 104.82 °W | Updated 10 minutes ago

Mawingu sehemu ndogo
Mawingu sehemu ndogo
40.6 °F
Feels Like 41 °F
N
0.0
Upepo Ya mabadiliko Upepo from Magharibi-Kusini-Magharibi (MgKMg) WSW

Leo
High -- | Low -- °F
--% Chance of Precip.
Yesterday
High -- | Low -- °F
Precip. -- nchi
7:05 AM 5:20 PM
Waxing Gibbous, 95% visible
Shinikizo 30.22 nchi
Mwangaza 10.0 meli
Clouds Few 6000 ft
Few 10000 ft
Ubaridi wa upepo 41 °F
Kilele cha umande 24 °F
Unyevu 51%
Rainfall 0.00 nchi
Snow Depth Not available.
UV 3 out of 12
Pollen .30 out of 12
Air Quality Not available.
Flu Activity Not available.
METAR KCOS 011754Z 21004KT 10SM FEW060 FEW100 M02/M07 A3012 RMK AO2 SLP234 T10171072 11017 21072 51016

More Conditions Fewer Conditions

Shinikizo 30.22 nchi
Mwangaza 10.0 meli
Clouds Few 6000 ft
Few 10000 ft
Ubaridi wa upepo 41 °F
Kilele cha umande 24 °F
Unyevu 51%
Rainfall 0.00 nchi
Snow Depth Not available.
UV 3 out of 12
Pollen .30 out of 12
Air Quality Not available.
Flu Activity Not available.
METAR KCOS 011754Z 21004KT 10SM FEW060 FEW100 M02/M07 A3012 RMK AO2 SLP234 T10171072 11017 21072 51016

More Conditions Fewer Conditions

10-Day Weather Forecast

Almanac

Astronomy

Feb. 01, 2015 Rise Set
Actual Time
Civil Twilight
Nautical Twilight
Astronomical Twilight
Moon
Length Of Visible Light
Length of Day
Tomorrow will be .
, % of the Moon is Illuminated

Today's Extremes

State Highs State Lows

Community

WunderPhotos

Upload Photos

1,792,417 photos uploaded!

WunderBlogs® & News

Nearby

Air Quality

  Air Quality AQ Index Pollutant
Not available.

Snow Depth

Station Depth Elevation

Earthquake Activity

City Distance Mag. Time & Date
Minimum magnitude displayed is 2.5.

Coastal Water Temperatures

Mahali Hali ya Hewa

Nearby Weather Stations